sensor_id;sensor_type;location;lat;lon;timestamp;P1;durP1;ratioP1;P2;durP2;ratioP2
50779;SDS011;36748;37.428;-121.972;2022-08-11T00:01:16;6.85;;;1.40;;
50779;SDS011;36748;37.428;-121.972;2022-08-11T00:03:49;10.20;;;1.50;;
50779;SDS011;36748;37.428;-121.972;2022-08-11T00:06:28;10.85;;;1.60;;
50779;SDS011;36748;37.428;-121.972;2022-08-11T00:09:05;5.05;;;1.40;;
50779;SDS011;36748;37.428;-121.972;2022-08-11T00:11:38;4.20;;;1.50;;
50779;SDS011;36748;37.428;-121.972;2022-08-11T00:14:17;5.63;;;1.35;;
50779;SDS011;36748;37.428;-121.972;2022-08-11T00:17:06;16.27;;;1.80;;
50779;SDS011;36748;37.428;-121.972;2022-08-11T00:19:35;5.95;;;1.23;;
50779;SDS011;36748;37.428;-121.972;2022-08-11T00:22:03;8.00;;;1.40;;
50779;SDS011;36748;37.428;-121.972;2022-08-11T00:24:32;9.30;;;1.67;;
50779;SDS011;36748;37.428;-121.972;2022-08-11T00:27:02;11.63;;;1.50;;
50779;SDS011;36748;37.428;-121.972;2022-08-11T00:29:29;17.52;;;2.05;;
50779;SDS011;36748;37.428;-121.972;2022-08-11T00:31:56;9.25;;;1.70;;
50779;SDS011;36748;37.428;-121.972;2022-08-11T00:34:30;5.18;;;1.70;;
50779;SDS011;36748;37.428;-121.972;2022-08-11T00:37:11;9.32;;;1.63;;
50779;SDS011;36748;37.428;-121.972;2022-08-11T00:39:44;5.53;;;1.33;;
50779;SDS011;36748;37.428;-121.972;2022-08-11T00:47:52;9.73;;;1.30;;
50779;SDS011;36748;37.428;-121.972;2022-08-11T00:50:26;13.23;;;1.80;;
50779;SDS011;36748;37.428;-121.972;2022-08-11T00:53:13;7.95;;;1.88;;
50779;SDS011;36748;37.428;-121.972;2022-08-11T01:00:57;7.10;;;2.00;;
50779;SDS011;36748;37.428;-121.972;2022-08-11T01:03:53;8.32;;;1.52;;
50779;SDS011;36748;37.428;-121.972;2022-08-11T01:12:55;7.85;;;1.08;;
50779;SDS011;36748;37.428;-121.972;2022-08-11T01:15:36;2.65;;;1.10;;
50779;SDS011;36748;37.428;-121.972;2022-08-11T01:21:58;4.85;;;1.30;;
50779;SDS011;36748;37.428;-121.972;2022-08-11T01:39:00;6.78;;;1.10;;
50779;SDS011;36748;37.428;-121.972;2022-08-11T01:44:40;4.13;;;1.02;;
50779;SDS011;36748;37.428;-121.972;2022-08-11T01:50:35;6.30;;;1.40;;
50779;SDS011;36748;37.428;-121.972;2022-08-11T01:53:22;9.07;;;1.58;;
50779;SDS011;36748;37.428;-121.972;2022-08-11T02:01:40;5.78;;;1.50;;
50779;SDS011;36748;37.428;-121.972;2022-08-11T02:04:20;4.13;;;1.15;;
50779;SDS011;36748;37.428;-121.972;2022-08-11T02:07:28;4.15;;;1.05;;
50779;SDS011;36748;37.428;-121.972;2022-08-11T02:13:14;3.00;;;0.90;;
50779;SDS011;36748;37.428;-121.972;2022-08-11T02:15:54;3.33;;;1.25;;
50779;SDS011;36748;37.428;-121.972;2022-08-11T02:18:33;4.10;;;1.13;;
50779;SDS011;36748;37.428;-121.972;2022-08-11T02:21:29;2.85;;;1.15;;
50779;SDS011;36748;37.428;-121.972;2022-08-11T02:24:22;2.33;;;0.90;;
50779;SDS011;36748;37.428;-121.972;2022-08-11T02:27:01;2.97;;;1.13;;
50779;SDS011;36748;37.428;-121.972;2022-08-11T02:29:46;3.47;;;1.00;;
50779;SDS011;36748;37.428;-121.972;2022-08-11T02:32:21;4.57;;;1.20;;
50779;SDS011;36748;37.428;-121.972;2022-08-11T02:43:54;3.75;;;1.20;;
50779;SDS011;36748;37.428;-121.972;2022-08-11T02:51:56;4.47;;;1.15;;
50779;SDS011;36748;37.428;-121.972;2022-08-11T02:59:48;6.72;;;1.30;;
50779;SDS011;36748;37.428;-121.972;2022-08-11T03:05:11;4.22;;;1.20;;
50779;SDS011;36748;37.428;-121.972;2022-08-11T03:07:48;6.18;;;1.20;;
50779;SDS011;36748;37.428;-121.972;2022-08-11T03:13:30;4.72;;;1.05;;
50779;SDS011;36748;37.428;-121.972;2022-08-11T03:16:18;4.57;;;1.20;;
50779;SDS011;36748;37.428;-121.972;2022-08-11T03:22:00;5.20;;;0.98;;
50779;SDS011;36748;37.428;-121.972;2022-08-11T03:24:41;9.43;;;1.45;;
50779;SDS011;36748;37.428;-121.972;2022-08-11T03:27:25;5.30;;;1.10;;
50779;SDS011;36748;37.428;-121.972;2022-08-11T03:30:26;4.68;;;1.17;;
50779;SDS011;36748;37.428;-121.972;2022-08-11T03:32:57;3.22;;;1.05;;
50779;SDS011;36748;37.428;-121.972;2022-08-11T03:38:43;5.80;;;1.10;;
50779;SDS011;36748;37.428;-121.972;2022-08-11T03:41:28;3.88;;;1.40;;
50779;SDS011;36748;37.428;-121.972;2022-08-11T03:44:19;2.65;;;0.90;;
50779;SDS011;36748;37.428;-121.972;2022-08-11T04:04:06;2.20;;;1.08;;
50779;SDS011;36748;37.428;-121.972;2022-08-11T04:15:36;4.53;;;1.10;;
50779;SDS011;36748;37.428;-121.972;2022-08-11T04:18:29;1.27;;;0.63;;
50779;SDS011;36748;37.428;-121.972;2022-08-11T05:10:07;4.50;;;1.10;;
50779;SDS011;36748;37.428;-121.972;2022-08-11T05:15:33;2.10;;;0.77;;
50779;SDS011;36748;37.428;-121.972;2022-08-11T05:18:24;2.88;;;0.93;;
50779;SDS011;36748;37.428;-121.972;2022-08-11T05:21:10;2.53;;;0.70;;
50779;SDS011;36748;37.428;-121.972;2022-08-11T05:24:03;2.95;;;0.65;;
50779;SDS011;36748;37.428;-121.972;2022-08-11T05:26:53;2.10;;;1.05;;
50779;SDS011;36748;37.428;-121.972;2022-08-11T05:32:28;3.95;;;1.00;;
50779;SDS011;36748;37.428;-121.972;2022-08-11T05:35:23;2.00;;;0.70;;
50779;SDS011;36748;37.428;-121.972;2022-08-11T05:37:52;2.10;;;0.90;;
50779;SDS011;36748;37.428;-121.972;2022-08-11T05:40:38;1.48;;;0.82;;
50779;SDS011;36748;37.428;-121.972;2022-08-11T05:46:18;2.17;;;0.70;;
50779;SDS011;36748;37.428;-121.972;2022-08-11T05:49:07;1.48;;;0.63;;
50779;SDS011;36748;37.428;-121.972;2022-08-11T05:51:52;2.22;;;0.90;;
50779;SDS011;36748;37.428;-121.972;2022-08-11T05:54:36;2.90;;;0.70;;
50779;SDS011;36748;37.428;-121.972;2022-08-11T05:57:22;1.92;;;0.70;;
50779;SDS011;36748;37.428;-121.972;2022-08-11T05:59:56;1.77;;;0.80;;
50779;SDS011;36748;37.428;-121.972;2022-08-11T06:02:24;1.67;;;0.70;;
50779;SDS011;36748;37.428;-121.972;2022-08-11T06:04:56;2.15;;;0.65;;
50779;SDS011;36748;37.428;-121.972;2022-08-11T06:07:30;2.80;;;0.75;;
50779;SDS011;36748;37.428;-121.972;2022-08-11T06:10:00;1.55;;;0.60;;
50779;SDS011;36748;37.428;-121.972;2022-08-11T06:15:30;2.83;;;1.00;;
50779;SDS011;36748;37.428;-121.972;2022-08-11T06:18:03;2.25;;;1.00;;
50779;SDS011;36748;37.428;-121.972;2022-08-11T06:20:29;2.40;;;0.85;;
50779;SDS011;36748;37.428;-121.972;2022-08-11T06:23:08;2.70;;;0.70;;
50779;SDS011;36748;37.428;-121.972;2022-08-11T06:25:43;2.30;;;0.90;;
50779;SDS011;36748;37.428;-121.972;2022-08-11T06:28:10;2.35;;;0.70;;
50779;SDS011;36748;37.428;-121.972;2022-08-11T06:30:44;2.15;;;1.00;;
50779;SDS011;36748;37.428;-121.972;2022-08-11T06:33:24;1.38;;;0.60;;
50779;SDS011;36748;37.428;-121.972;2022-08-11T06:41:37;3.22;;;0.60;;
50779;SDS011;36748;37.428;-121.972;2022-08-11T06:44:13;1.77;;;0.77;;
50779;SDS011;36748;37.428;-121.972;2022-08-11T06:47:06;3.90;;;0.80;;
50779;SDS011;36748;37.428;-121.972;2022-08-11T06:49:44;2.63;;;0.70;;
50779;SDS011;36748;37.428;-121.972;2022-08-11T06:52:31;2.00;;;0.70;;
50779;SDS011;36748;37.428;-121.972;2022-08-11T06:55:25;1.83;;;0.70;;
50779;SDS011;36748;37.428;-121.972;2022-08-11T06:58:19;1.67;;;0.80;;
50779;SDS011;36748;37.428;-121.972;2022-08-11T07:01:10;1.50;;;0.88;;
50779;SDS011;36748;37.428;-121.972;2022-08-11T07:04:00;2.83;;;0.80;;
50779;SDS011;36748;37.428;-121.972;2022-08-11T07:06:51;5.15;;;0.90;;
50779;SDS011;36748;37.428;-121.972;2022-08-11T07:12:51;1.73;;;0.60;;
50779;SDS011;36748;37.428;-121.972;2022-08-11T07:15:37;2.90;;;1.02;;
50779;SDS011;36748;37.428;-121.972;2022-08-11T07:18:07;3.47;;;0.95;;
50779;SDS011;36748;37.428;-121.972;2022-08-11T07:21:17;1.40;;;0.52;;
50779;SDS011;36748;37.428;-121.972;2022-08-11T07:27:17;1.52;;;0.55;;
50779;SDS011;36748;37.428;-121.972;2022-08-11T07:30:04;1.63;;;0.90;;
50779;SDS011;36748;37.428;-121.972;2022-08-11T07:32:36;1.95;;;0.80;;
50779;SDS011;36748;37.428;-121.972;2022-08-11T07:35:11;1.73;;;0.80;;
50779;SDS011;36748;37.428;-121.972;2022-08-11T07:38:01;1.30;;;0.60;;
50779;SDS011;36748;37.428;-121.972;2022-08-11T07:40:30;1.00;;;0.47;;
50779;SDS011;36748;37.428;-121.972;2022-08-11T07:42:56;2.85;;;1.00;;
50779;SDS011;36748;37.428;-121.972;2022-08-11T07:45:24;1.98;;;0.80;;
50779;SDS011;36748;37.428;-121.972;2022-08-11T07:48:10;0.70;;;0.47;;
50779;SDS011;36748;37.428;-121.972;2022-08-11T07:53:44;2.70;;;1.20;;
50779;SDS011;36748;37.428;-121.972;2022-08-11T07:56:10;1.25;;;0.60;;
50779;SDS011;36748;37.428;-121.972;2022-08-11T07:58:40;2.17;;;0.80;;
50779;SDS011;36748;37.428;-121.972;2022-08-11T08:01:25;1.23;;;0.55;;
50779;SDS011;36748;37.428;-121.972;2022-08-11T08:04:11;1.63;;;0.50;;
50779;SDS011;36748;37.428;-121.972;2022-08-11T08:06:58;1.45;;;0.73;;
50779;SDS011;36748;37.428;-121.972;2022-08-11T08:12:28;2.70;;;0.80;;
50779;SDS011;36748;37.428;-121.972;2022-08-11T08:15:13;1.40;;;0.60;;
50779;SDS011;36748;37.428;-121.972;2022-08-11T08:18:01;0.73;;;0.52;;
50779;SDS011;36748;37.428;-121.972;2022-08-11T08:23:04;1.50;;;0.70;;
50779;SDS011;36748;37.428;-121.972;2022-08-11T08:25:32;2.63;;;0.80;;
50779;SDS011;36748;37.428;-121.972;2022-08-11T08:28:02;3.40;;;0.73;;
50779;SDS011;36748;37.428;-121.972;2022-08-11T08:30:32;2.65;;;0.73;;
50779;SDS011;36748;37.428;-121.972;2022-08-11T08:35:51;1.55;;;0.65;;
50779;SDS011;36748;37.428;-121.972;2022-08-11T08:38:42;2.50;;;0.60;;
50779;SDS011;36748;37.428;-121.972;2022-08-11T08:41:13;1.35;;;0.68;;
50779;SDS011;36748;37.428;-121.972;2022-08-11T08:43:45;1.77;;;0.80;;
50779;SDS011;36748;37.428;-121.972;2022-08-11T08:46:14;2.00;;;0.88;;
50779;SDS011;36748;37.428;-121.972;2022-08-11T08:48:43;1.20;;;0.60;;
50779;SDS011;36748;37.428;-121.972;2022-08-11T08:51:12;1.52;;;0.43;;
50779;SDS011;36748;37.428;-121.972;2022-08-11T08:54:00;2.00;;;0.70;;
50779;SDS011;36748;37.428;-121.972;2022-08-11T08:56:29;1.42;;;0.60;;
50779;SDS011;36748;37.428;-121.972;2022-08-11T08:59:00;2.30;;;0.70;;
50779;SDS011;36748;37.428;-121.972;2022-08-11T09:01:38;1.27;;;0.60;;
50779;SDS011;36748;37.428;-121.972;2022-08-11T09:04:08;1.15;;;0.40;;
50779;SDS011;36748;37.428;-121.972;2022-08-11T09:06:38;1.38;;;0.40;;
50779;SDS011;36748;37.428;-121.972;2022-08-11T09:09:07;2.22;;;0.60;;
50779;SDS011;36748;37.428;-121.972;2022-08-11T09:11:43;1.33;;;0.80;;
50779;SDS011;36748;37.428;-121.972;2022-08-11T09:14:37;1.80;;;0.70;;
50779;SDS011;36748;37.428;-121.972;2022-08-11T09:17:24;2.60;;;0.70;;
50779;SDS011;36748;37.428;-121.972;2022-08-11T09:19:54;1.30;;;0.73;;
50779;SDS011;36748;37.428;-121.972;2022-08-11T09:22:39;1.55;;;0.80;;
50779;SDS011;36748;37.428;-121.972;2022-08-11T09:25:26;1.00;;;0.63;;
50779;SDS011;36748;37.428;-121.972;2022-08-11T09:28:14;0.98;;;0.50;;
50779;SDS011;36748;37.428;-121.972;2022-08-11T09:30:42;1.25;;;0.60;;
50779;SDS011;36748;37.428;-121.972;2022-08-11T09:33:10;1.52;;;0.57;;
50779;SDS011;36748;37.428;-121.972;2022-08-11T09:35:40;1.05;;;0.57;;
50779;SDS011;36748;37.428;-121.972;2022-08-11T09:38:12;1.73;;;0.70;;
50779;SDS011;36748;37.428;-121.972;2022-08-11T09:40:58;1.05;;;0.50;;
50779;SDS011;36748;37.428;-121.972;2022-08-11T09:43:24;1.35;;;0.70;;
50779;SDS011;36748;37.428;-121.972;2022-08-11T09:46:13;1.33;;;0.75;;
50779;SDS011;36748;37.428;-121.972;2022-08-11T09:48:43;2.00;;;0.55;;
50779;SDS011;36748;37.428;-121.972;2022-08-11T09:51:10;1.35;;;0.70;;
50779;SDS011;36748;37.428;-121.972;2022-08-11T09:53:43;1.30;;;0.65;;
50779;SDS011;36748;37.428;-121.972;2022-08-11T09:56:20;1.77;;;0.55;;
50779;SDS011;36748;37.428;-121.972;2022-08-11T09:59:09;1.67;;;0.70;;
50779;SDS011;36748;37.428;-121.972;2022-08-11T10:01:54;1.45;;;0.50;;
50779;SDS011;36748;37.428;-121.972;2022-08-11T10:04:27;2.90;;;0.82;;
50779;SDS011;36748;37.428;-121.972;2022-08-11T10:12:04;1.45;;;0.63;;
50779;SDS011;36748;37.428;-121.972;2022-08-11T10:14:33;1.40;;;0.70;;
50779;SDS011;36748;37.428;-121.972;2022-08-11T10:17:20;1.30;;;0.60;;
50779;SDS011;36748;37.428;-121.972;2022-08-11T10:19:48;2.35;;;0.70;;
50779;SDS011;36748;37.428;-121.972;2022-08-11T10:22:15;1.80;;;0.68;;
50779;SDS011;36748;37.428;-121.972;2022-08-11T10:25:01;2.10;;;0.57;;
50779;SDS011;36748;37.428;-121.972;2022-08-11T10:27:46;1.65;;;0.60;;
50779;SDS011;36748;37.428;-121.972;2022-08-11T10:30:25;1.50;;;0.60;;
50779;SDS011;36748;37.428;-121.972;2022-08-11T10:33:13;1.05;;;0.60;;
50779;SDS011;36748;37.428;-121.972;2022-08-11T10:35:59;1.80;;;0.70;;
50779;SDS011;36748;37.428;-121.972;2022-08-11T10:38:26;1.25;;;0.55;;
50779;SDS011;36748;37.428;-121.972;2022-08-11T10:40:53;1.45;;;0.65;;
50779;SDS011;36748;37.428;-121.972;2022-08-11T10:43:38;1.42;;;0.57;;
50779;SDS011;36748;37.428;-121.972;2022-08-11T10:46:08;0.73;;;0.50;;
50779;SDS011;36748;37.428;-121.972;2022-08-11T10:48:54;2.65;;;0.65;;
50779;SDS011;36748;37.428;-121.972;2022-08-11T10:51:21;1.55;;;0.52;;
50779;SDS011;36748;37.428;-121.972;2022-08-11T10:54:07;1.20;;;0.50;;
50779;SDS011;36748;37.428;-121.972;2022-08-11T10:56:52;2.30;;;0.93;;
50779;SDS011;36748;37.428;-121.972;2022-08-11T10:59:37;1.55;;;0.65;;
50779;SDS011;36748;37.428;-121.972;2022-08-11T11:02:03;1.27;;;0.50;;
50779;SDS011;36748;37.428;-121.972;2022-08-11T11:04:38;2.25;;;0.70;;
50779;SDS011;36748;37.428;-121.972;2022-08-11T11:07:21;1.83;;;0.88;;
50779;SDS011;36748;37.428;-121.972;2022-08-11T11:09:50;1.52;;;0.70;;
50779;SDS011;36748;37.428;-121.972;2022-08-11T11:15:29;2.25;;;0.75;;
50779;SDS011;36748;37.428;-121.972;2022-08-11T11:20:53;1.05;;;0.60;;
50779;SDS011;36748;37.428;-121.972;2022-08-11T11:23:39;2.58;;;0.93;;
50779;SDS011;36748;37.428;-121.972;2022-08-11T11:32:25;1.98;;;0.60;;
50779;SDS011;36748;37.428;-121.972;2022-08-11T11:35:16;1.70;;;0.60;;
50779;SDS011;36748;37.428;-121.972;2022-08-11T11:37:50;0.90;;;0.65;;
50779;SDS011;36748;37.428;-121.972;2022-08-11T11:40:18;4.00;;;0.88;;
50779;SDS011;36748;37.428;-121.972;2022-08-11T11:42:49;1.33;;;0.80;;
50779;SDS011;36748;37.428;-121.972;2022-08-11T11:45:20;1.42;;;0.55;;
50779;SDS011;36748;37.428;-121.972;2022-08-11T11:47:50;1.73;;;0.55;;
50779;SDS011;36748;37.428;-121.972;2022-08-11T11:50:22;1.42;;;0.98;;
50779;SDS011;36748;37.428;-121.972;2022-08-11T11:52:52;1.00;;;0.65;;
50779;SDS011;36748;37.428;-121.972;2022-08-11T11:55:20;3.47;;;0.93;;
50779;SDS011;36748;37.428;-121.972;2022-08-11T11:57:48;1.17;;;0.60;;
50779;SDS011;36748;37.428;-121.972;2022-08-11T12:00:34;2.80;;;0.82;;
50779;SDS011;36748;37.428;-121.972;2022-08-11T12:03:19;2.10;;;0.70;;
50779;SDS011;36748;37.428;-121.972;2022-08-11T12:05:45;2.35;;;0.85;;
50779;SDS011;36748;37.428;-121.972;2022-08-11T12:08:12;3.25;;;0.82;;
50779;SDS011;36748;37.428;-121.972;2022-08-11T12:13:12;1.45;;;0.85;;
50779;SDS011;36748;37.428;-121.972;2022-08-11T12:15:59;2.50;;;0.70;;
50779;SDS011;36748;37.428;-121.972;2022-08-11T12:18:30;1.98;;;0.82;;
50779;SDS011;36748;37.428;-121.972;2022-08-11T12:21:00;2.65;;;0.90;;
50779;SDS011;36748;37.428;-121.972;2022-08-11T12:23:27;5.45;;;1.23;;
50779;SDS011;36748;37.428;-121.972;2022-08-11T12:26:13;2.50;;;0.90;;
50779;SDS011;36748;37.428;-121.972;2022-08-11T12:28:59;2.42;;;0.93;;
50779;SDS011;36748;37.428;-121.972;2022-08-11T12:31:27;1.33;;;0.65;;
50779;SDS011;36748;37.428;-121.972;2022-08-11T12:34:15;1.98;;;0.77;;
50779;SDS011;36748;37.428;-121.972;2022-08-11T12:37:02;2.22;;;0.77;;
50779;SDS011;36748;37.428;-121.972;2022-08-11T12:39:33;2.00;;;0.82;;
50779;SDS011;36748;37.428;-121.972;2022-08-11T12:42:20;1.65;;;0.80;;
50779;SDS011;36748;37.428;-121.972;2022-08-11T12:45:07;2.15;;;0.88;;
50779;SDS011;36748;37.428;-121.972;2022-08-11T12:47:57;2.47;;;0.75;;
50779;SDS011;36748;37.428;-121.972;2022-08-11T12:51:00;4.85;;;0.98;;
50779;SDS011;36748;37.428;-121.972;2022-08-11T12:53:56;2.72;;;0.85;;
50779;SDS011;36748;37.428;-121.972;2022-08-11T12:56:26;1.17;;;0.60;;
50779;SDS011;36748;37.428;-121.972;2022-08-11T12:59:12;2.20;;;1.00;;
50779;SDS011;36748;37.428;-121.972;2022-08-11T13:01:57;2.45;;;0.80;;
50779;SDS011;36748;37.428;-121.972;2022-08-11T13:04:42;1.80;;;0.80;;
50779;SDS011;36748;37.428;-121.972;2022-08-11T13:07:26;2.70;;;1.00;;
50779;SDS011;36748;37.428;-121.972;2022-08-11T13:09:54;1.45;;;0.70;;
50779;SDS011;36748;37.428;-121.972;2022-08-11T13:12:21;2.80;;;1.05;;
50779;SDS011;36748;37.428;-121.972;2022-08-11T13:15:07;1.75;;;0.93;;
50779;SDS011;36748;37.428;-121.972;2022-08-11T13:17:35;2.95;;;0.85;;
50779;SDS011;36748;37.428;-121.972;2022-08-11T13:20:02;2.72;;;0.75;;
50779;SDS011;36748;37.428;-121.972;2022-08-11T13:22:30;2.63;;;0.90;;
50779;SDS011;36748;37.428;-121.972;2022-08-11T13:24:56;2.28;;;1.10;;
50779;SDS011;36748;37.428;-121.972;2022-08-11T13:27:23;4.10;;;0.88;;
50779;SDS011;36748;37.428;-121.972;2022-08-11T13:29:49;1.95;;;0.77;;
50779;SDS011;36748;37.428;-121.972;2022-08-11T13:32:37;3.72;;;1.02;;
50779;SDS011;36748;37.428;-121.972;2022-08-11T13:35:05;1.98;;;0.88;;
50779;SDS011;36748;37.428;-121.972;2022-08-11T13:37:31;4.93;;;1.17;;
50779;SDS011;36748;37.428;-121.972;2022-08-11T13:39:59;2.83;;;1.05;;
50779;SDS011;36748;37.428;-121.972;2022-08-11T13:42:26;2.08;;;0.90;;
50779;SDS011;36748;37.428;-121.972;2022-08-11T13:44:53;1.75;;;0.90;;
50779;SDS011;36748;37.428;-121.972;2022-08-11T13:47:20;2.63;;;1.00;;
50779;SDS011;36748;37.428;-121.972;2022-08-11T13:49:49;2.72;;;0.98;;
50779;SDS011;36748;37.428;-121.972;2022-08-11T13:52:15;3.75;;;1.17;;
50779;SDS011;36748;37.428;-121.972;2022-08-11T13:54:42;4.78;;;1.02;;
50779;SDS011;36748;37.428;-121.972;2022-08-11T13:57:12;6.03;;;1.30;;
50779;SDS011;36748;37.428;-121.972;2022-08-11T13:59:43;3.55;;;1.10;;
50779;SDS011;36748;37.428;-121.972;2022-08-11T14:02:20;3.72;;;0.95;;
50779;SDS011;36748;37.428;-121.972;2022-08-11T14:04:53;4.78;;;1.08;;
50779;SDS011;36748;37.428;-121.972;2022-08-11T14:07:21;2.72;;;1.10;;
50779;SDS011;36748;37.428;-121.972;2022-08-11T14:09:57;2.60;;;1.17;;
50779;SDS011;36748;37.428;-121.972;2022-08-11T14:12:24;3.88;;;1.35;;
50779;SDS011;36748;37.428;-121.972;2022-08-11T14:18:03;3.42;;;1.13;;
50779;SDS011;36748;37.428;-121.972;2022-08-11T14:20:54;2.75;;;0.80;;
50779;SDS011;36748;37.428;-121.972;2022-08-11T14:23:40;2.90;;;1.00;;
50779;SDS011;36748;37.428;-121.972;2022-08-11T14:26:09;5.90;;;1.38;;
50779;SDS011;36748;37.428;-121.972;2022-08-11T14:28:56;3.60;;;1.30;;
50779;SDS011;36748;37.428;-121.972;2022-08-11T14:31:27;2.05;;;0.80;;
50779;SDS011;36748;37.428;-121.972;2022-08-11T14:33:55;6.15;;;1.45;;
50779;SDS011;36748;37.428;-121.972;2022-08-11T14:36:23;2.63;;;1.15;;
50779;SDS011;36748;37.428;-121.972;2022-08-11T14:38:51;3.17;;;1.20;;
50779;SDS011;36748;37.428;-121.972;2022-08-11T14:41:18;3.45;;;1.17;;
50779;SDS011;36748;37.428;-121.972;2022-08-11T14:44:03;3.08;;;1.10;;
50779;SDS011;36748;37.428;-121.972;2022-08-11T14:46:48;2.40;;;0.95;;
50779;SDS011;36748;37.428;-121.972;2022-08-11T14:49:30;4.47;;;1.38;;
50779;SDS011;36748;37.428;-121.972;2022-08-11T14:51:59;10.13;;;1.48;;
50779;SDS011;36748;37.428;-121.972;2022-08-11T14:54:28;3.42;;;0.98;;
50779;SDS011;36748;37.428;-121.972;2022-08-11T14:57:14;5.00;;;1.30;;
50779;SDS011;36748;37.428;-121.972;2022-08-11T14:59:41;2.40;;;0.90;;
50779;SDS011;36748;37.428;-121.972;2022-08-11T15:02:08;7.53;;;1.35;;
50779;SDS011;36748;37.428;-121.972;2022-08-11T15:04:53;4.72;;;1.00;;
50779;SDS011;36748;37.428;-121.972;2022-08-11T15:07:20;8.73;;;1.27;;
50779;SDS011;36748;37.428;-121.972;2022-08-11T15:09:56;4.50;;;1.23;;
50779;SDS011;36748;37.428;-121.972;2022-08-11T15:12:23;7.03;;;1.60;;
50779;SDS011;36748;37.428;-121.972;2022-08-11T15:14:50;4.45;;;0.80;;
50779;SDS011;36748;37.428;-121.972;2022-08-11T15:17:35;14.68;;;1.70;;
50779;SDS011;36748;37.428;-121.972;2022-08-11T15:20:05;12.55;;;1.67;;
50779;SDS011;36748;37.428;-121.972;2022-08-11T15:22:51;12.80;;;1.48;;
50779;SDS011;36748;37.428;-121.972;2022-08-11T15:25:36;7.13;;;1.67;;
50779;SDS011;36748;37.428;-121.972;2022-08-11T15:28:03;5.35;;;1.15;;
50779;SDS011;36748;37.428;-121.972;2022-08-11T15:30:50;6.82;;;1.25;;
50779;SDS011;36748;37.428;-121.972;2022-08-11T15:33:38;9.25;;;1.50;;
50779;SDS011;36748;37.428;-121.972;2022-08-11T15:36:23;9.00;;;1.90;;
50779;SDS011;36748;37.428;-121.972;2022-08-11T15:39:18;15.30;;;1.80;;
50779;SDS011;36748;37.428;-121.972;2022-08-11T15:41:55;22.75;;;2.53;;
50779;SDS011;36748;37.428;-121.972;2022-08-11T15:44:44;12.43;;;2.00;;
50779;SDS011;36748;37.428;-121.972;2022-08-11T15:47:43;13.45;;;2.10;;
50779;SDS011;36748;37.428;-121.972;2022-08-11T15:50:14;6.07;;;1.20;;
50779;SDS011;36748;37.428;-121.972;2022-08-11T15:52:45;10.55;;;1.52;;
50779;SDS011;36748;37.428;-121.972;2022-08-11T15:55:17;14.40;;;1.35;;
50779;SDS011;36748;37.428;-121.972;2022-08-11T15:57:45;12.52;;;1.73;;
50779;SDS011;36748;37.428;-121.972;2022-08-11T16:00:31;4.05;;;1.33;;
50779;SDS011;36748;37.428;-121.972;2022-08-11T16:03:16;6.03;;;1.65;;
50779;SDS011;36748;37.428;-121.972;2022-08-11T16:06:00;3.90;;;0.90;;
50779;SDS011;36748;37.428;-121.972;2022-08-11T16:08:27;8.15;;;1.48;;
50779;SDS011;36748;37.428;-121.972;2022-08-11T16:10:53;1.52;;;0.82;;
50779;SDS011;36748;37.428;-121.972;2022-08-11T16:13:20;2.72;;;1.00;;
50779;SDS011;36748;37.428;-121.972;2022-08-11T16:15:51;4.70;;;1.20;;
50779;SDS011;36748;37.428;-121.972;2022-08-11T16:18:50;4.93;;;1.45;;
50779;SDS011;36748;37.428;-121.972;2022-08-11T16:21:25;4.97;;;1.25;;
50779;SDS011;36748;37.428;-121.972;2022-08-11T16:23:53;3.55;;;0.88;;
50779;SDS011;36748;37.428;-121.972;2022-08-11T16:26:22;1.88;;;1.00;;
50779;SDS011;36748;37.428;-121.972;2022-08-11T16:28:53;2.58;;;1.00;;
50779;SDS011;36748;37.428;-121.972;2022-08-11T16:31:21;2.78;;;1.10;;
50779;SDS011;36748;37.428;-121.972;2022-08-11T16:33:49;4.18;;;1.05;;
50779;SDS011;36748;37.428;-121.972;2022-08-11T16:36:17;3.05;;;1.17;;
50779;SDS011;36748;37.428;-121.972;2022-08-11T16:39:03;3.10;;;0.90;;
50779;SDS011;36748;37.428;-121.972;2022-08-11T16:41:31;5.15;;;1.10;;
50779;SDS011;36748;37.428;-121.972;2022-08-11T16:47:01;2.60;;;1.02;;
50779;SDS011;36748;37.428;-121.972;2022-08-11T16:49:35;3.45;;;1.10;;
50779;SDS011;36748;37.428;-121.972;2022-08-11T16:52:03;3.33;;;1.02;;
50779;SDS011;36748;37.428;-121.972;2022-08-11T16:54:35;4.25;;;1.20;;
50779;SDS011;36748;37.428;-121.972;2022-08-11T16:57:02;4.80;;;1.00;;
50779;SDS011;36748;37.428;-121.972;2022-08-11T16:59:49;4.97;;;1.50;;
50779;SDS011;36748;37.428;-121.972;2022-08-11T17:02:16;1.92;;;0.80;;
50779;SDS011;36748;37.428;-121.972;2022-08-11T17:05:14;3.00;;;1.30;;
50779;SDS011;36748;37.428;-121.972;2022-08-11T17:08:01;3.45;;;1.00;;
50779;SDS011;36748;37.428;-121.972;2022-08-11T17:13:35;2.30;;;1.10;;
50779;SDS011;36748;37.428;-121.972;2022-08-11T17:16:09;3.47;;;1.23;;
50779;SDS011;36748;37.428;-121.972;2022-08-11T17:26:31;2.70;;;0.80;;
50779;SDS011;36748;37.428;-121.972;2022-08-11T17:30:00;6.22;;;1.20;;
50779;SDS011;36748;37.428;-121.972;2022-08-11T17:32:09;4.50;;;1.30;;
50779;SDS011;36748;37.428;-121.972;2022-08-11T17:35:03;3.70;;;1.23;;
50779;SDS011;36748;37.428;-121.972;2022-08-11T17:40:37;3.63;;;1.27;;
50779;SDS011;36748;37.428;-121.972;2022-08-11T17:43:29;2.95;;;1.20;;
50779;SDS011;36748;37.428;-121.972;2022-08-11T17:46:16;3.95;;;1.05;;
50779;SDS011;36748;37.428;-121.972;2022-08-11T17:49:02;1.77;;;0.98;;
50779;SDS011;36748;37.428;-121.972;2022-08-11T17:51:31;4.35;;;1.58;;
50779;SDS011;36748;37.428;-121.972;2022-08-11T17:54:17;2.53;;;1.10;;
50779;SDS011;36748;37.428;-121.972;2022-08-11T17:57:02;2.60;;;0.80;;
50779;SDS011;36748;37.428;-121.972;2022-08-11T17:59:47;4.95;;;1.38;;
50779;SDS011;36748;37.428;-121.972;2022-08-11T18:03:00;2.80;;;1.02;;
50779;SDS011;36748;37.428;-121.972;2022-08-11T18:05:27;4.30;;;1.42;;
50779;SDS011;36748;37.428;-121.972;2022-08-11T18:07:58;3.70;;;1.10;;
50779;SDS011;36748;37.428;-121.972;2022-08-11T18:10:44;2.38;;;0.93;;
50779;SDS011;36748;37.428;-121.972;2022-08-11T18:13:30;3.47;;;0.77;;
50779;SDS011;36748;37.428;-121.972;2022-08-11T18:16:17;3.17;;;1.30;;
50779;SDS011;36748;37.428;-121.972;2022-08-11T18:19:02;4.30;;;1.35;;
50779;SDS011;36748;37.428;-121.972;2022-08-11T18:21:48;4.75;;;1.17;;
50779;SDS011;36748;37.428;-121.972;2022-08-11T18:24:38;3.35;;;1.05;;
50779;SDS011;36748;37.428;-121.972;2022-08-11T18:27:26;2.25;;;1.10;;
50779;SDS011;36748;37.428;-121.972;2022-08-11T18:30:13;3.53;;;1.23;;
50779;SDS011;36748;37.428;-121.972;2022-08-11T18:33:00;3.00;;;1.05;;
50779;SDS011;36748;37.428;-121.972;2022-08-11T18:35:49;4.18;;;1.17;;
50779;SDS011;36748;37.428;-121.972;2022-08-11T18:38:38;3.13;;;1.17;;
50779;SDS011;36748;37.428;-121.972;2022-08-11T18:41:24;4.13;;;1.40;;
50779;SDS011;36748;37.428;-121.972;2022-08-11T18:44:10;2.47;;;0.93;;
50779;SDS011;36748;37.428;-121.972;2022-08-11T18:46:57;4.03;;;1.33;;
50779;SDS011;36748;37.428;-121.972;2022-08-11T18:49:42;2.07;;;1.00;;
50779;SDS011;36748;37.428;-121.972;2022-08-11T18:52:27;5.53;;;1.10;;
50779;SDS011;36748;37.428;-121.972;2022-08-11T18:55:13;3.25;;;1.13;;
50779;SDS011;36748;37.428;-121.972;2022-08-11T18:58:02;12.85;;;1.30;;
50779;SDS011;36748;37.428;-121.972;2022-08-11T19:00:48;7.03;;;1.30;;
50779;SDS011;36748;37.428;-121.972;2022-08-11T19:03:33;16.05;;;1.60;;